createdAt,value
2017-05-06T00:00:03.426Z,100451
2017-05-06T00:01:03.458Z,100449
2017-05-06T00:02:03.519Z,100443
2017-05-06T00:03:03.578Z,100446
2017-05-06T00:04:03.571Z,100436
2017-05-06T00:05:03.913Z,100437
2017-05-06T00:06:04.148Z,100433
2017-05-06T00:07:03.704Z,100436
2017-05-06T00:08:04.293Z,100432
2017-05-06T00:09:04.274Z,100437
2017-05-06T00:10:04.297Z,100432
2017-05-06T00:11:04.171Z,100437
2017-05-06T00:12:04.416Z,100435
2017-05-06T00:13:04.507Z,100435
2017-05-06T00:14:04.081Z,100432
2017-05-06T00:15:04.659Z,100436
2017-05-06T00:16:04.272Z,100434
2017-05-06T00:17:05.022Z,100433
2017-05-06T00:18:04.842Z,100430
2017-05-06T00:19:04.886Z,100430
2017-05-06T00:20:04.915Z,100429
2017-05-06T00:21:04.350Z,100427
2017-05-06T00:22:04.421Z,100429
2017-05-06T00:23:04.847Z,100425
2017-05-06T00:24:04.536Z,100425
2017-05-06T00:25:05.082Z,100430
2017-05-06T00:26:05.196Z,100427
2017-05-06T00:27:05.249Z,100422
2017-05-06T00:28:04.712Z,100427
2017-05-06T00:29:05.591Z,100420
2017-05-06T00:30:05.324Z,100424
2017-05-06T00:31:04.834Z,100422
2017-05-06T00:32:05.397Z,100423
2017-05-06T00:33:04.884Z,100418
2017-05-06T00:34:05.487Z,100421
2017-05-06T00:35:05.883Z,100418
2017-05-06T00:36:05.167Z,100411
2017-05-06T00:37:05.137Z,100418
2017-05-06T00:38:05.808Z,100416
2017-05-06T00:39:05.861Z,100418
2017-05-06T00:40:05.863Z,100415
2017-05-06T00:41:06.172Z,100414
2017-05-06T00:42:05.952Z,100414
2017-05-06T00:43:06.082Z,100414
2017-05-06T00:44:05.541Z,100413
2017-05-06T00:45:06.126Z,100402
2017-05-06T00:46:05.589Z,100406
2017-05-06T00:47:05.989Z,100406
2017-05-06T00:48:06.272Z,100404
2017-05-06T00:49:05.798Z,100401
2017-05-06T00:50:06.368Z,100400
2017-05-06T00:51:05.841Z,100398
2017-05-06T00:52:05.859Z,100396
2017-05-06T00:53:06.683Z,100390
2017-05-06T00:54:06.486Z,100394
2017-05-06T00:55:06.566Z,100389
2017-05-06T00:56:06.148Z,100393
2017-05-06T00:57:06.223Z,100391
2017-05-06T00:58:06.242Z,100387
2017-05-06T00:59:07.167Z,100387
2017-05-06T01:00:06.408Z,100388
2017-05-06T01:01:07.509Z,100384
2017-05-06T01:02:06.544Z,100385
2017-05-06T01:03:06.570Z,100384
2017-05-06T01:04:06.667Z,100390
2017-05-06T01:05:06.948Z,100380
2017-05-06T01:06:06.698Z,100369
2017-05-06T01:07:07.936Z,100379
2017-05-06T01:08:07.377Z,100378
2017-05-06T01:09:08.365Z,100373
2017-05-06T01:10:07.439Z,100380
2017-05-06T01:11:08.456Z,100377
2017-05-06T01:12:07.482Z,100368
2017-05-06T01:13:06.988Z,100373
2017-05-06T01:14:07.562Z,100379
2017-05-06T01:15:07.744Z,100373
2017-05-06T01:16:07.645Z,100372
2017-05-06T01:17:07.991Z,100376
2017-05-06T01:18:07.293Z,100373
2017-05-06T01:19:07.843Z,100369
2017-05-06T01:20:07.402Z,100368
2017-05-06T01:21:07.528Z,100370
2017-05-06T01:22:08.074Z,100364
2017-05-06T01:23:09.093Z,100366
2017-05-06T01:24:08.207Z,100367
2017-05-06T01:25:07.760Z,100367
2017-05-06T01:26:07.747Z,100363
2017-05-06T01:27:07.828Z,100364
2017-05-06T01:28:07.906Z,100364
2017-05-06T01:29:08.178Z,100365
2017-05-06T01:30:08.528Z,100364
2017-05-06T01:31:08.569Z,100362
2017-05-06T01:32:08.579Z,100366
2017-05-06T01:33:08.618Z,100363
2017-05-06T01:34:08.090Z,100367
2017-05-06T01:35:08.958Z,100364
2017-05-06T01:36:08.232Z,100363
2017-05-06T01:37:08.822Z,100359
2017-05-06T01:38:08.932Z,100356
2017-05-06T01:39:08.414Z,100355
2017-05-06T01:40:09.008Z,100352
2017-05-06T01:41:09.276Z,100345
2017-05-06T01:42:08.563Z,100349
2017-05-06T01:43:08.643Z,100347
2017-05-06T01:44:08.739Z,100342
2017-05-06T01:45:09.542Z,100341
2017-05-06T01:46:09.722Z,100343
2017-05-06T01:47:09.510Z,100345
2017-05-06T01:48:09.576Z,100338
2017-05-06T01:49:09.176Z,100337
2017-05-06T01:50:09.214Z,100341
2017-05-06T01:51:09.768Z,100339
2017-05-06T01:52:10.121Z,100342
2017-05-06T01:53:09.820Z,100338
2017-05-06T01:54:09.422Z,100341
2017-05-06T01:55:09.972Z,100342
2017-05-06T01:56:09.462Z,100337
2017-05-06T01:57:09.587Z,100341
2017-05-06T01:58:10.398Z,100340
2017-05-06T01:59:09.690Z,100340
2017-05-06T02:00:09.725Z,100339
2017-05-06T02:01:09.771Z,100341
2017-05-06T02:02:09.877Z,100336
2017-05-06T02:03:10.463Z,100340
2017-05-06T02:04:10.835Z,100339
2017-05-06T02:05:10.551Z,100333
2017-05-06T02:06:10.575Z,100337
2017-05-06T02:07:10.098Z,100335
2017-05-06T02:08:10.676Z,100328
2017-05-06T02:09:10.745Z,100331
2017-05-06T02:10:10.496Z,100324
2017-05-06T02:11:10.240Z,100323
2017-05-06T02:12:10.870Z,100316
2017-05-06T02:13:10.414Z,100319
2017-05-06T02:14:10.432Z,100319
2017-05-06T02:15:11.075Z,100315
2017-05-06T02:16:11.373Z,100313
2017-05-06T02:17:11.096Z,100318
2017-05-06T02:18:10.691Z,100317
2017-05-06T02:19:10.750Z,100316
2017-05-06T02:20:10.744Z,100315
2017-05-06T02:21:10.830Z,100311
2017-05-06T02:22:11.149Z,100307
2017-05-06T02:23:11.451Z,100315
2017-05-06T02:24:11.060Z,100313
2017-05-06T02:25:11.638Z,100310
2017-05-06T02:26:11.111Z,100312
2017-05-06T02:27:11.756Z,100313
2017-05-06T02:28:11.551Z,100306
2017-05-06T02:29:11.274Z,100315
2017-05-06T02:30:11.861Z,100312
2017-05-06T02:31:11.877Z,100311
2017-05-06T02:32:11.931Z,100307
2017-05-06T02:33:11.994Z,100313
2017-05-06T02:34:11.769Z,100310
2017-05-06T02:35:11.559Z,100309
2017-05-06T02:36:11.613Z,100310
2017-05-06T02:37:11.668Z,100311
2017-05-06T02:38:12.341Z,100307
2017-05-06T02:39:12.167Z,100303
2017-05-06T02:40:12.505Z,100308
2017-05-06T02:41:12.540Z,100307
2017-05-06T02:42:12.611Z,100308
2017-05-06T02:43:12.134Z,100308
2017-05-06T02:44:12.674Z,100314
2017-05-06T02:45:12.470Z,100309
2017-05-06T02:46:12.277Z,100310
2017-05-06T02:47:12.300Z,100311
2017-05-06T02:48:12.838Z,100309
2017-05-06T02:49:12.845Z,100308
2017-05-06T02:50:12.373Z,100312
2017-05-06T02:51:13.152Z,100309
2017-05-06T02:52:12.993Z,100308
2017-05-06T02:53:13.005Z,100309
2017-05-06T02:54:13.025Z,100309
2017-05-06T02:55:12.492Z,100310
2017-05-06T02:56:12.575Z,100310
2017-05-06T02:57:12.970Z,100306
2017-05-06T02:58:13.255Z,100305
2017-05-06T02:59:13.249Z,100298
2017-05-06T03:00:13.240Z,100297
2017-05-06T03:01:13.455Z,100303
2017-05-06T03:02:13.324Z,100304
2017-05-06T03:03:13.655Z,100305
2017-05-06T03:04:12.881Z,100304
2017-05-06T03:05:12.891Z,100299
2017-05-06T03:06:12.942Z,100301
2017-05-06T03:07:12.993Z,100305
2017-05-06T03:08:13.525Z,100304
2017-05-06T03:09:13.902Z,100307
2017-05-06T03:10:13.678Z,100309
2017-05-06T03:11:13.153Z,100305
2017-05-06T03:12:13.755Z,100299
2017-05-06T03:13:13.761Z,100305
2017-05-06T03:14:13.318Z,100300
2017-05-06T03:15:14.230Z,100302
2017-05-06T03:16:13.406Z,100295
2017-05-06T03:17:13.457Z,100303
2017-05-06T03:18:13.505Z,100304
2017-05-06T03:19:14.101Z,100307
2017-05-06T03:20:14.134Z,100302
2017-05-06T03:21:13.962Z,100296
2017-05-06T03:22:14.282Z,100301
2017-05-06T03:23:14.256Z,100297
2017-05-06T03:24:13.856Z,100298
2017-05-06T03:25:14.419Z,100298
2017-05-06T03:26:13.950Z,100304
2017-05-06T03:27:14.354Z,100302
2017-05-06T03:28:14.619Z,100296
2017-05-06T03:29:14.092Z,100297
2017-05-06T03:30:14.758Z,100297
2017-05-06T03:31:14.204Z,100295
2017-05-06T03:32:14.263Z,100295
2017-05-06T03:33:14.685Z,100289
2017-05-06T03:34:14.405Z,100291
2017-05-06T03:35:15.033Z,100286
2017-05-06T03:36:15.150Z,100291
2017-05-06T03:37:15.128Z,100288
2017-05-06T03:38:14.726Z,100291
2017-05-06T03:39:15.028Z,100288
2017-05-06T03:40:15.334Z,100290
2017-05-06T03:41:15.472Z,100286
2017-05-06T03:42:15.510Z,100282
2017-05-06T03:43:14.941Z,100289
2017-05-06T03:44:15.017Z,100292
2017-05-06T03:45:15.396Z,100291
2017-05-06T03:46:15.681Z,100288
2017-05-06T03:47:15.750Z,100291
2017-05-06T03:48:15.769Z,100289
2017-05-06T03:49:15.776Z,100291
2017-05-06T03:50:15.301Z,100292
2017-05-06T03:51:16.181Z,100289
2017-05-06T03:52:15.418Z,100292
2017-05-06T03:53:16.058Z,100292
2017-05-06T03:54:15.550Z,100292
2017-05-06T03:55:15.637Z,100290
2017-05-06T03:56:16.297Z,100293
2017-05-06T03:57:16.063Z,100294
2017-05-06T03:58:15.774Z,100290
2017-05-06T03:59:16.315Z,100295
2017-05-06T04:00:15.859Z,100294
2017-05-06T04:01:16.412Z,100294
2017-05-06T04:02:16.432Z,100296
2017-05-06T04:03:16.800Z,100286
2017-05-06T04:04:16.111Z,100293
2017-05-06T04:05:16.744Z,100290
2017-05-06T04:06:16.227Z,100302
2017-05-06T04:07:16.780Z,100290
2017-05-06T04:08:16.405Z,100296
2017-05-06T04:09:17.138Z,100292
2017-05-06T04:10:16.428Z,100294
2017-05-06T04:11:16.503Z,100289
2017-05-06T04:12:17.127Z,100293
2017-05-06T04:13:17.142Z,100285
2017-05-06T04:14:16.630Z,100294
2017-05-06T04:15:16.922Z,100292
2017-05-06T04:16:16.680Z,100297
2017-05-06T04:17:17.271Z,100295
2017-05-06T04:18:17.288Z,100295
2017-05-06T04:19:17.296Z,100297
2017-05-06T04:20:16.886Z,100290
2017-05-06T04:21:17.165Z,100299
2017-05-06T04:22:16.926Z,100298
2017-05-06T04:23:17.509Z,100300
2017-05-06T04:24:17.548Z,100297
2017-05-06T04:25:17.027Z,100298
2017-05-06T04:26:17.613Z,100297
2017-05-06T04:27:17.463Z,100297
2017-05-06T04:28:17.728Z,100292
2017-05-06T04:29:17.790Z,100286
2017-05-06T04:30:17.786Z,100291
2017-05-06T04:31:17.287Z,100292
2017-05-06T04:32:17.848Z,100290
2017-05-06T04:33:17.646Z,100293
2017-05-06T04:34:17.420Z,100292
2017-05-06T04:35:17.551Z,100287
2017-05-06T04:36:17.560Z,100291
2017-05-06T04:37:18.187Z,100291
2017-05-06T04:38:17.664Z,100288
2017-05-06T04:39:18.002Z,100293
2017-05-06T04:40:18.305Z,100292
2017-05-06T04:41:18.325Z,100292
2017-05-06T04:42:18.437Z,100289
2017-05-06T04:43:18.469Z,100294
2017-05-06T04:44:17.960Z,100292
2017-05-06T04:45:18.776Z,100289
2017-05-06T04:46:18.046Z,100289
2017-05-06T04:47:18.648Z,100286
2017-05-06T04:48:18.175Z,100284
2017-05-06T04:49:18.733Z,100279
2017-05-06T04:50:18.740Z,100282
2017-05-06T04:51:18.488Z,100280
2017-05-06T04:52:18.833Z,100279
2017-05-06T04:53:18.835Z,100276
2017-05-06T04:54:18.961Z,100279
2017-05-06T04:55:19.028Z,100281
2017-05-06T04:56:19.110Z,100282
2017-05-06T04:57:18.874Z,100278
2017-05-06T04:58:19.160Z,100276
2017-05-06T04:59:18.584Z,100276
2017-05-06T05:00:18.714Z,100281
2017-05-06T05:01:18.748Z,100275
2017-05-06T05:02:18.753Z,100273
2017-05-06T05:03:19.102Z,100276
2017-05-06T05:04:19.387Z,100275
2017-05-06T05:05:19.449Z,100271
2017-05-06T05:06:18.933Z,100270
2017-05-06T05:07:19.597Z,100264
2017-05-06T05:08:19.100Z,100268
2017-05-06T05:09:20.094Z,100266
2017-05-06T05:10:19.252Z,100269
2017-05-06T05:11:19.309Z,100266
2017-05-06T05:12:19.858Z,100263
2017-05-06T05:13:19.404Z,100261
2017-05-06T05:14:19.510Z,100262
2017-05-06T05:15:19.853Z,100262
2017-05-06T05:16:19.543Z,100260
2017-05-06T05:17:19.629Z,100264
2017-05-06T05:18:20.190Z,100253
2017-05-06T05:19:19.675Z,100259
2017-05-06T05:20:20.290Z,100262
2017-05-06T05:21:20.159Z,100266
2017-05-06T05:22:20.492Z,100263
2017-05-06T05:23:19.985Z,100260
2017-05-06T05:24:20.039Z,100259
2017-05-06T05:25:20.609Z,100253
2017-05-06T05:26:20.612Z,100261
2017-05-06T05:27:20.462Z,100259
2017-05-06T05:28:20.262Z,100259
2017-05-06T05:29:20.860Z,100255
2017-05-06T05:30:20.866Z,100244
2017-05-06T05:31:20.465Z,100251
2017-05-06T05:32:20.506Z,100251
2017-05-06T05:33:20.800Z,100247
2017-05-06T05:34:21.174Z,100245
2017-05-06T05:35:21.198Z,100243
2017-05-06T05:36:20.788Z,100247
2017-05-06T05:37:20.853Z,100245
2017-05-06T05:38:21.711Z,100245
2017-05-06T05:39:21.395Z,100239
2017-05-06T05:40:20.884Z,100248
2017-05-06T05:41:21.547Z,100238
2017-05-06T05:42:21.061Z,100246
2017-05-06T05:43:21.561Z,100243
2017-05-06T05:44:21.299Z,100241
2017-05-06T05:45:21.608Z,100238
2017-05-06T05:46:21.145Z,100236
2017-05-06T05:47:21.632Z,100237
2017-05-06T05:48:21.168Z,100233
2017-05-06T05:49:21.721Z,100224
2017-05-06T05:50:21.528Z,100229
2017-05-06T05:51:21.270Z,100230
2017-05-06T05:52:21.860Z,100229
2017-05-06T05:53:21.427Z,100224
2017-05-06T05:54:21.491Z,100231
2017-05-06T05:55:22.076Z,100231
2017-05-06T05:56:22.354Z,100229
2017-05-06T05:57:21.567Z,100227
2017-05-06T05:58:22.235Z,100224
2017-05-06T05:59:22.311Z,100227
2017-05-06T06:00:22.354Z,100231
2017-05-06T06:01:21.867Z,100222
2017-05-06T06:02:21.935Z,100226
2017-05-06T06:03:22.549Z,100225
2017-05-06T06:04:22.033Z,100224
2017-05-06T06:05:22.638Z,100223
2017-05-06T06:06:22.668Z,100224
2017-05-06T06:07:22.713Z,100225
2017-05-06T06:08:22.226Z,100219
2017-05-06T06:09:22.816Z,100217
2017-05-06T06:10:22.239Z,100220
2017-05-06T06:11:22.829Z,100222
2017-05-06T06:12:22.307Z,100220
2017-05-06T06:13:22.930Z,100224
2017-05-06T06:14:22.439Z,100221
2017-05-06T06:15:23.039Z,100223
2017-05-06T06:16:23.064Z,100220
2017-05-06T06:17:23.107Z,100223
2017-05-06T06:18:23.160Z,100219
2017-05-06T06:19:22.662Z,100216
2017-05-06T06:20:22.777Z,100216
2017-05-06T06:21:23.315Z,100218
2017-05-06T06:22:22.889Z,100215
2017-05-06T06:23:23.497Z,100216
2017-05-06T06:24:23.591Z,100215
2017-05-06T06:25:23.055Z,100209
2017-05-06T06:26:23.091Z,100211
2017-05-06T06:27:23.693Z,100202
2017-05-06T06:28:23.686Z,100206
2017-05-06T06:29:23.748Z,100204
2017-05-06T06:30:23.798Z,100206
2017-05-06T06:31:23.818Z,100204
2017-05-06T06:32:23.910Z,100205
2017-05-06T06:33:23.993Z,100204
2017-05-06T06:34:23.956Z,100204
2017-05-06T06:35:23.500Z,100201
2017-05-06T06:36:24.089Z,100207
2017-05-06T06:37:24.223Z,100196
2017-05-06T06:38:24.494Z,100201
2017-05-06T06:39:23.725Z,100200
2017-05-06T06:40:24.323Z,100196
2017-05-06T06:41:23.820Z,100190
2017-05-06T06:42:24.374Z,100195
2017-05-06T06:43:24.446Z,100188
2017-05-06T06:44:24.472Z,100179
2017-05-06T06:45:24.512Z,100180
2017-05-06T06:46:24.000Z,100189
2017-05-06T06:47:24.658Z,100188
2017-05-06T06:48:24.179Z,100188
2017-05-06T06:49:24.768Z,100185
2017-05-06T06:50:24.846Z,100186
2017-05-06T06:51:24.882Z,100184
2017-05-06T06:52:24.431Z,100186
2017-05-06T06:53:25.005Z,100188
2017-05-06T06:54:25.044Z,100170
2017-05-06T06:55:24.536Z,100176
2017-05-06T06:56:25.125Z,100184
2017-05-06T06:57:24.656Z,100179
2017-05-06T06:58:25.223Z,100177
2017-05-06T06:59:25.353Z,100176
2017-05-06T07:00:24.814Z,100169
2017-05-06T07:01:24.887Z,100168
2017-05-06T07:02:25.489Z,100177
2017-05-06T07:03:25.548Z,100168
2017-05-06T07:04:25.039Z,100170
2017-05-06T07:05:25.097Z,100173
2017-05-06T07:06:25.168Z,100175
2017-05-06T07:07:25.275Z,100170
2017-05-06T07:08:25.840Z,100166
2017-05-06T07:09:25.830Z,100163
2017-05-06T07:10:25.901Z,100165
2017-05-06T07:11:26.014Z,100168
2017-05-06T07:12:25.443Z,100165
2017-05-06T07:13:25.545Z,100162
2017-05-06T07:14:25.564Z,100170
2017-05-06T07:15:26.122Z,100165
2017-05-06T07:16:25.676Z,100168
2017-05-06T07:17:26.211Z,100172
2017-05-06T07:18:26.295Z,100167
2017-05-06T07:19:26.276Z,100164
2017-05-06T07:20:26.701Z,100158
2017-05-06T07:21:25.834Z,100161
2017-05-06T07:22:25.952Z,100164
2017-05-06T07:23:25.963Z,100164
2017-05-06T07:24:26.623Z,100159
2017-05-06T07:25:26.167Z,100162
2017-05-06T07:26:26.452Z,100162
2017-05-06T07:27:26.283Z,100164
2017-05-06T07:28:26.821Z,100156
2017-05-06T07:29:26.318Z,100160
2017-05-06T07:30:26.397Z,100157
2017-05-06T07:31:26.476Z,100163
2017-05-06T07:32:26.757Z,100164
2017-05-06T07:33:26.548Z,100161
2017-05-06T07:34:27.136Z,100156
2017-05-06T07:35:27.943Z,100159
2017-05-06T07:36:27.317Z,100158
2017-05-06T07:37:27.449Z,100160
2017-05-06T07:38:28.386Z,100153
2017-05-06T07:39:27.525Z,100146
2017-05-06T07:40:28.119Z,100144
2017-05-06T07:41:28.809Z,100151
2017-05-06T07:42:27.056Z,100147
2017-05-06T07:43:27.053Z,100148
2017-05-06T07:44:28.000Z,100142
2017-05-06T07:45:27.614Z,100144
2017-05-06T07:46:27.217Z,100133
2017-05-06T07:47:27.706Z,100133
2017-05-06T07:48:27.730Z,100138
2017-05-06T07:49:27.821Z,100139
2017-05-06T07:50:28.170Z,100135
2017-05-06T07:51:28.042Z,100123
2017-05-06T07:52:28.694Z,100129
2017-05-06T07:53:28.230Z,100129
2017-05-06T07:54:28.161Z,100133
2017-05-06T07:55:28.231Z,100120
2017-05-06T07:56:27.995Z,100130
2017-05-06T07:57:28.317Z,100126
2017-05-06T07:58:27.847Z,100129
2017-05-06T07:59:28.493Z,100122
2017-05-06T08:00:28.548Z,100119
2017-05-06T08:01:27.946Z,100123
2017-05-06T08:02:28.928Z,100116
2017-05-06T08:03:28.022Z,100117
2017-05-06T08:04:29.081Z,100118
2017-05-06T08:05:28.126Z,100118
2017-05-06T08:06:28.693Z,100120
2017-05-06T08:07:28.795Z,100118
2017-05-06T08:08:29.199Z,100115
2017-05-06T08:09:28.340Z,100119
2017-05-06T08:10:28.939Z,100117
2017-05-06T08:11:28.429Z,100113
2017-05-06T08:12:28.985Z,100118
2017-05-06T08:13:28.433Z,100116
2017-05-06T08:14:29.282Z,100107
2017-05-06T08:15:28.993Z,100113
2017-05-06T08:16:29.126Z,100110
2017-05-06T08:17:29.913Z,100106
2017-05-06T08:18:29.182Z,100111
2017-05-06T08:19:28.795Z,100107
2017-05-06T08:20:29.659Z,100107
2017-05-06T08:21:29.389Z,100107
2017-05-06T08:22:29.404Z,100107
2017-05-06T08:23:29.460Z,100097
2017-05-06T08:24:29.567Z,100097
2017-05-06T08:25:29.092Z,100094
2017-05-06T08:26:29.465Z,100105
2017-05-06T08:27:29.269Z,100099
2017-05-06T08:28:29.367Z,100097
2017-05-06T08:29:29.893Z,100098
2017-05-06T08:30:29.482Z,100099
2017-05-06T08:31:29.523Z,100097
2017-05-06T08:32:29.793Z,100095
2017-05-06T08:33:29.546Z,100085
2017-05-06T08:34:29.621Z,100080
2017-05-06T08:35:30.225Z,100082
2017-05-06T08:36:30.853Z,100082
2017-05-06T08:37:29.690Z,100078
2017-05-06T08:38:30.557Z,100081
2017-05-06T08:39:29.779Z,100069
2017-05-06T08:40:29.827Z,100072
2017-05-06T08:41:30.469Z,100074
2017-05-06T08:42:31.115Z,100072
2017-05-06T08:43:29.976Z,100070
2017-05-06T08:44:30.851Z,100066
2017-05-06T08:45:30.625Z,100052
2017-05-06T08:46:30.190Z,100058
2017-05-06T08:47:30.190Z,100061
2017-05-06T08:48:32.001Z,100060
2017-05-06T08:49:30.273Z,100059
2017-05-06T08:50:31.068Z,100057
2017-05-06T08:51:30.859Z,100046
2017-05-06T08:52:30.387Z,100045
2017-05-06T08:53:30.969Z,100051
2017-05-06T08:54:31.024Z,100054
2017-05-06T08:55:31.129Z,100049
2017-05-06T08:56:31.465Z,100052
2017-05-06T08:57:31.724Z,100052
2017-05-06T08:58:30.742Z,100043
2017-05-06T08:59:31.346Z,100046
2017-05-06T09:00:30.845Z,100045
2017-05-06T09:01:30.849Z,100043
2017-05-06T09:02:31.228Z,100043
2017-05-06T09:03:30.965Z,100039
2017-05-06T09:04:31.068Z,100045
2017-05-06T09:05:31.094Z,100038
2017-05-06T09:06:31.111Z,100039
2017-05-06T09:07:31.065Z,100036
2017-05-06T09:08:31.994Z,100035
2017-05-06T09:09:31.150Z,100035
2017-05-06T09:10:31.730Z,100034
2017-05-06T09:11:31.298Z,100036
2017-05-06T09:12:31.332Z,100034
2017-05-06T09:13:31.308Z,100035
2017-05-06T09:14:31.593Z,100038
2017-05-06T09:15:32.462Z,100028
2017-05-06T09:16:31.969Z,100022
2017-05-06T09:17:31.989Z,100030
2017-05-06T09:18:32.081Z,100029
2017-05-06T09:19:31.583Z,100029
2017-05-06T09:20:32.386Z,100021
2017-05-06T09:21:31.655Z,100018
2017-05-06T09:22:31.643Z,100017
2017-05-06T09:23:31.758Z,100011
2017-05-06T09:24:32.259Z,100017
2017-05-06T09:25:32.298Z,100017
2017-05-06T09:26:32.167Z,100015
2017-05-06T09:27:32.609Z,100010
2017-05-06T09:28:32.508Z,100005
2017-05-06T09:29:32.553Z,100010
2017-05-06T09:30:32.658Z,100012
2017-05-06T09:31:32.721Z,100012
2017-05-06T09:32:33.048Z,100010
2017-05-06T09:33:32.285Z,100016
2017-05-06T09:34:32.346Z,100002
2017-05-06T09:35:32.329Z,100003
2017-05-06T09:36:32.946Z,100008
2017-05-06T09:37:32.975Z,100007
2017-05-06T09:38:32.781Z,100004
2017-05-06T09:39:33.058Z,100007
2017-05-06T09:40:32.476Z,100004
2017-05-06T09:41:33.153Z,100002
2017-05-06T09:42:32.585Z,100004
2017-05-06T09:43:33.930Z,100012
2017-05-06T09:44:33.508Z,100005
2017-05-06T09:45:33.294Z,100006
2017-05-06T09:46:32.834Z,99999
2017-05-06T09:47:33.426Z,99995
2017-05-06T09:48:32.923Z,99996
2017-05-06T09:49:32.947Z,99986
2017-05-06T09:50:33.810Z,99988
2017-05-06T09:51:33.571Z,99996
2017-05-06T09:52:33.113Z,100001
2017-05-06T09:53:33.119Z,100001
2017-05-06T09:54:33.137Z,99995
2017-05-06T09:55:33.177Z,99993
2017-05-06T09:56:34.097Z,99992
2017-05-06T09:57:33.359Z,99977
2017-05-06T09:58:33.388Z,99980
2017-05-06T09:59:33.985Z,99984
2017-05-06T10:00:34.102Z,99985
2017-05-06T10:01:33.603Z,99979
2017-05-06T10:02:33.956Z,99974
2017-05-06T10:03:34.248Z,99975
2017-05-06T10:04:33.765Z,99968
2017-05-06T10:05:33.809Z,99967
2017-05-06T10:06:33.900Z,99973
2017-05-06T10:07:34.518Z,99968
2017-05-06T10:08:34.948Z,99971
2017-05-06T10:09:34.644Z,99969
2017-05-06T10:10:34.735Z,99968
2017-05-06T10:11:34.783Z,99960
2017-05-06T10:12:34.301Z,99956
2017-05-06T10:13:34.378Z,99958
2017-05-06T10:14:35.214Z,99961
2017-05-06T10:15:34.471Z,99957
2017-05-06T10:16:34.563Z,99962
2017-05-06T10:17:35.140Z,99950
2017-05-06T10:18:34.646Z,99952
2017-05-06T10:19:35.265Z,99952
2017-05-06T10:20:35.105Z,99953
2017-05-06T10:21:35.347Z,99952
2017-05-06T10:22:34.952Z,99955
2017-05-06T10:23:34.989Z,99952
2017-05-06T10:24:35.059Z,99945
2017-05-06T10:25:35.642Z,99946
2017-05-06T10:26:35.938Z,99951
2017-05-06T10:27:35.131Z,99941
2017-05-06T10:28:35.752Z,99942
2017-05-06T10:29:35.242Z,99934
2017-05-06T10:30:35.859Z,99944
2017-05-06T10:31:35.964Z,99938
2017-05-06T10:32:36.266Z,99938
2017-05-06T10:33:35.511Z,99937
2017-05-06T10:34:35.597Z,99933
2017-05-06T10:35:35.674Z,99925
2017-05-06T10:36:35.677Z,99928
2017-05-06T10:37:36.819Z,99929
2017-05-06T10:38:36.581Z,99929
2017-05-06T10:39:36.305Z,99925
2017-05-06T10:40:36.293Z,99919
2017-05-06T10:41:36.426Z,99912
2017-05-06T10:42:35.929Z,99916
2017-05-06T10:43:36.007Z,99918
2017-05-06T10:44:36.317Z,99910
2017-05-06T10:45:36.673Z,99920
2017-05-06T10:46:36.704Z,99914
2017-05-06T10:47:36.750Z,99908
2017-05-06T10:48:36.806Z,99904
2017-05-06T10:49:36.258Z,99909
2017-05-06T10:50:36.628Z,99902
2017-05-06T10:51:36.387Z,99909
2017-05-06T10:52:36.949Z,99899
2017-05-06T10:53:36.521Z,99899
2017-05-06T10:54:36.523Z,99904
2017-05-06T10:55:37.162Z,99890
2017-05-06T10:56:39.461Z,99886
2017-05-06T10:57:37.269Z,99882
2017-05-06T10:58:36.773Z,99888
2017-05-06T10:59:36.895Z,99882
2017-05-06T11:00:37.524Z,99891
2017-05-06T11:01:37.089Z,99888
2017-05-06T11:02:37.968Z,99895
2017-05-06T11:03:37.177Z,99892
2017-05-06T11:04:38.007Z,99886
2017-05-06T11:05:37.282Z,99890
2017-05-06T11:06:37.895Z,99890
2017-05-06T11:07:37.407Z,99884
2017-05-06T11:08:37.778Z,99879
2017-05-06T11:09:38.025Z,99888
2017-05-06T11:10:38.004Z,99883
2017-05-06T11:11:38.090Z,99884
2017-05-06T11:12:37.638Z,99885
2017-05-06T11:13:38.238Z,99887
2017-05-06T11:14:38.076Z,99882
2017-05-06T11:15:37.864Z,99875
2017-05-06T11:16:38.428Z,99867
2017-05-06T11:17:38.446Z,99867
2017-05-06T11:18:38.565Z,99865
2017-05-06T11:19:38.135Z,99870
2017-05-06T11:20:38.941Z,99863
2017-05-06T11:21:38.270Z,99864
2017-05-06T11:22:38.261Z,99859
2017-05-06T11:23:38.907Z,99861
2017-05-06T11:24:38.971Z,99864
2017-05-06T11:25:38.504Z,99863
2017-05-06T11:26:38.842Z,99856
2017-05-06T11:27:39.204Z,99854
2017-05-06T11:28:39.305Z,99853
2017-05-06T11:29:39.508Z,99859
2017-05-06T11:30:39.449Z,99849
2017-05-06T11:31:38.918Z,99852
2017-05-06T11:32:39.809Z,99841
2017-05-06T11:33:39.540Z,99846
2017-05-06T11:34:39.617Z,99852
2017-05-06T11:35:39.617Z,99850
2017-05-06T11:36:39.655Z,99847
2017-05-06T11:37:39.664Z,99844
2017-05-06T11:38:40.489Z,99839
2017-05-06T11:39:39.761Z,99839
2017-05-06T11:40:39.752Z,99838
2017-05-06T11:41:39.785Z,99830
2017-05-06T11:42:39.892Z,99821
2017-05-06T11:43:39.945Z,99833
2017-05-06T11:44:40.308Z,99834
2017-05-06T11:45:40.112Z,99827
2017-05-06T11:46:39.594Z,99820
2017-05-06T11:47:39.605Z,99826
2017-05-06T11:48:40.289Z,99826
2017-05-06T11:49:39.776Z,99816
2017-05-06T11:50:40.105Z,99824
2017-05-06T11:51:39.839Z,99820
2017-05-06T11:52:41.112Z,99819
2017-05-06T11:53:40.509Z,99817
2017-05-06T11:54:40.577Z,99820
2017-05-06T11:55:40.075Z,99816
2017-05-06T11:56:40.498Z,99815
2017-05-06T11:57:40.323Z,99811
2017-05-06T11:58:40.291Z,99792
2017-05-06T11:59:40.876Z,99812
2017-05-06T12:00:40.953Z,99811
2017-05-06T12:01:40.917Z,99809
2017-05-06T12:02:40.770Z,99805
2017-05-06T12:03:40.449Z,99802
2017-05-06T12:04:40.516Z,99802
2017-05-06T12:05:40.557Z,99800
2017-05-06T12:06:41.119Z,99794
2017-05-06T12:07:40.670Z,99794
2017-05-06T12:08:40.994Z,99793
2017-05-06T12:09:41.276Z,99788
2017-05-06T12:10:40.790Z,99789
2017-05-06T12:11:41.364Z,99789
2017-05-06T12:12:40.910Z,99793
2017-05-06T12:13:41.588Z,99786
2017-05-06T12:14:41.929Z,99790
2017-05-06T12:15:41.701Z,99781
2017-05-06T12:16:41.165Z,99787
2017-05-06T12:17:41.149Z,99792
2017-05-06T12:18:41.233Z,99790
2017-05-06T12:19:43.028Z,99792
2017-05-06T12:20:42.184Z,99784
2017-05-06T12:21:41.916Z,99787
2017-05-06T12:22:41.380Z,99785
2017-05-06T12:23:41.466Z,99773
2017-05-06T12:24:41.536Z,99779
2017-05-06T12:25:42.229Z,99768
2017-05-06T12:26:42.395Z,99782
2017-05-06T12:27:41.706Z,99782
2017-05-06T12:28:41.775Z,99777
2017-05-06T12:29:41.812Z,99776
2017-05-06T12:30:42.993Z,99776
2017-05-06T12:31:41.829Z,99783
2017-05-06T12:32:42.830Z,99785
2017-05-06T12:33:42.477Z,99780